Windhoek, Namibia
Current Conditions -  °F | °C
As of 6:00 PM on Thursday 30 Oct 2014 (Local Time) from FYWE Reporting Station
Clear Clear  
Wind Chill: 84°   Ceiling: Unl
Heat Index: 84°   Visibility: 6mi
Dew Point: 23°   Wind: 12mph
Humidity: 11%   Direction: 240°WSW
Pressure: 30.09"   Gusts: NA
Location:  22.56°S, 17.09°E
Report Text: FYWE 301700Z 24010KT CAVOK 29/M05 Q1019
Loading
Personal Weather Stations






























Interactive Weather Map New forecast layout! Learn more

10-Day Weather Forecast

Advertisements
Track Severe Weather on mobile